createdAt,value
2018-03-19T00:00:18.550Z,53.48
2018-03-19T00:00:50.182Z,53.34
2018-03-19T00:01:21.814Z,53.32
2018-03-19T00:01:53.442Z,53.18
2018-03-19T00:02:25.070Z,53.15
2018-03-19T00:02:56.702Z,53.20
2018-03-19T00:03:28.329Z,53.16
2018-03-19T00:03:59.999Z,53.20
2018-03-19T00:04:31.634Z,53.16
2018-03-19T00:05:03.258Z,53.14
2018-03-19T00:05:34.882Z,53.04
2018-03-19T00:06:06.506Z,53.08
2018-03-19T00:06:38.133Z,52.98
2018-03-19T00:07:09.758Z,52.97
2018-03-19T00:07:41.386Z,52.97
2018-03-19T00:08:13.018Z,53.02
2018-03-19T00:08:44.696Z,53.09
2018-03-19T00:09:16.320Z,53.16
2018-03-19T00:09:47.951Z,53.14
2018-03-19T00:10:19.579Z,53.15
2018-03-19T00:10:51.210Z,53.21
2018-03-19T00:11:22.829Z,53.18
2018-03-19T00:11:54.694Z,53.26
2018-03-19T00:12:26.322Z,53.25
2018-03-19T00:12:57.953Z,53.30
2018-03-19T00:13:29.586Z,53.30
2018-03-19T00:14:01.255Z,53.16
2018-03-19T00:14:32.882Z,53.27
2018-03-19T00:15:04.523Z,53.37
2018-03-19T00:15:36.151Z,53.45
2018-03-19T00:16:07.773Z,53.60
2018-03-19T00:16:39.451Z,53.52
2018-03-19T00:17:11.078Z,53.62
2018-03-19T00:17:42.703Z,53.60
2018-03-19T00:18:14.338Z,53.83
2018-03-19T00:18:45.968Z,53.62
2018-03-19T00:19:17.594Z,53.67
2018-03-19T00:19:49.222Z,53.68
2018-03-19T00:20:20.902Z,53.69
2018-03-19T00:20:52.534Z,53.80
2018-03-19T00:21:24.167Z,53.83
2018-03-19T00:21:55.798Z,53.85
2018-03-19T00:22:27.471Z,53.91
2018-03-19T00:22:59.097Z,53.97
2018-03-19T00:23:30.726Z,54.13
2018-03-19T00:24:02.362Z,54.05
2018-03-19T00:24:33.990Z,54.22
2018-03-19T00:25:05.618Z,53.96
2018-03-19T00:25:37.250Z,54.04
2018-03-19T00:26:08.922Z,53.98
2018-03-19T00:26:40.545Z,54.09
2018-03-19T00:27:12.173Z,54.05
2018-03-19T00:27:43.798Z,54.33
2018-03-19T00:28:15.421Z,54.25
2018-03-19T00:28:47.051Z,54.27
2018-03-19T00:29:18.683Z,54.26
2018-03-19T00:29:50.310Z,54.13
2018-03-19T00:30:21.934Z,54.38
2018-03-19T00:30:53.562Z,54.30
2018-03-19T00:31:25.230Z,54.39
2018-03-19T00:31:56.858Z,54.42
2018-03-19T00:32:28.522Z,54.34
2018-03-19T00:33:00.147Z,54.60
2018-03-19T00:33:31.774Z,54.63
2018-03-19T00:34:03.408Z,54.55
2018-03-19T00:34:35.034Z,54.46
2018-03-19T00:35:06.668Z,54.53
2018-03-19T00:35:38.298Z,54.51
2018-03-19T00:36:09.928Z,54.78
2018-03-19T00:36:41.553Z,54.71
2018-03-19T00:37:13.218Z,55.00
2018-03-19T00:37:44.842Z,54.90
2018-03-19T00:38:16.466Z,54.99
2018-03-19T00:38:48.090Z,54.96
2018-03-19T00:39:19.715Z,54.92
2018-03-19T00:39:51.342Z,55.08
2018-03-19T00:40:22.999Z,54.99
2018-03-19T00:40:54.631Z,54.88
2018-03-19T00:41:26.258Z,55.03
2018-03-19T00:41:57.882Z,55.00
2018-03-19T00:42:29.546Z,55.00
2018-03-19T00:43:01.190Z,55.12
2018-03-19T00:43:32.818Z,55.10
2018-03-19T00:44:04.442Z,55.01
2018-03-19T00:44:36.066Z,55.01
2018-03-19T00:45:07.690Z,54.79
2018-03-19T00:45:39.311Z,55.19
2018-03-19T00:46:10.935Z,55.06
2018-03-19T00:46:42.558Z,54.96
2018-03-19T00:47:14.190Z,55.13
2018-03-19T00:47:45.818Z,54.88
2018-03-19T00:48:17.442Z,54.88
2018-03-19T00:48:49.066Z,54.96
2018-03-19T00:49:20.726Z,55.06
2018-03-19T00:49:52.395Z,55.33
2018-03-19T00:50:24.017Z,55.40
2018-03-19T00:50:55.646Z,55.41
2018-03-19T00:51:27.301Z,55.42
2018-03-19T00:51:58.933Z,55.06
2018-03-19T00:52:30.558Z,55.29
2018-03-19T00:53:02.181Z,55.06
2018-03-19T00:53:33.810Z,55.32
2018-03-19T00:54:05.481Z,55.56
2018-03-19T00:54:37.110Z,55.32
2018-03-19T00:55:08.734Z,55.11
2018-03-19T00:55:40.358Z,55.21
2018-03-19T00:56:11.981Z,55.19
2018-03-19T00:56:43.606Z,55.33
2018-03-19T00:57:15.247Z,55.13
2018-03-19T00:57:46.878Z,54.98
2018-03-19T00:58:18.506Z,55.06
2018-03-19T00:58:50.138Z,55.06
2018-03-19T00:59:21.805Z,54.98
2018-03-19T00:59:53.430Z,54.89
2018-03-19T01:00:25.054Z,55.04
2018-03-19T01:00:56.690Z,55.15
2018-03-19T01:01:28.318Z,55.18
2018-03-19T01:01:59.942Z,54.89
2018-03-19T01:02:31.612Z,54.79
2018-03-19T01:03:03.238Z,54.81
2018-03-19T01:03:34.862Z,54.79
2018-03-19T01:04:06.486Z,54.82
2018-03-19T01:04:38.111Z,54.91
2018-03-19T01:05:09.773Z,54.83
2018-03-19T01:05:41.407Z,54.78
2018-03-19T01:06:13.034Z,55.07
2018-03-19T01:06:44.663Z,54.90
2018-03-19T01:07:16.286Z,54.80
2018-03-19T01:07:47.914Z,54.91
2018-03-19T01:08:19.540Z,54.90
2018-03-19T01:08:51.192Z,55.03
2018-03-19T01:09:22.822Z,54.94
2018-03-19T01:09:54.499Z,54.84
2018-03-19T01:10:26.122Z,55.04
2018-03-19T01:10:57.754Z,54.71
2018-03-19T01:11:29.423Z,54.74
2018-03-19T01:12:01.067Z,54.66
2018-03-19T01:12:32.690Z,55.10
2018-03-19T01:13:04.310Z,54.91
2018-03-19T01:13:35.934Z,54.55
2018-03-19T01:14:07.565Z,54.51
2018-03-19T01:14:39.186Z,54.50
2018-03-19T01:15:10.859Z,54.71
2018-03-19T01:15:42.481Z,54.42
2018-03-19T01:16:14.109Z,54.52
2018-03-19T01:16:45.730Z,54.36
2018-03-19T01:17:17.365Z,54.72
2018-03-19T01:17:48.991Z,54.60
2018-03-19T01:18:20.642Z,54.82
2018-03-19T01:18:52.272Z,54.66
2018-03-19T01:19:23.898Z,54.58
2018-03-19T01:19:55.525Z,54.63
2018-03-19T01:20:27.154Z,54.52
2018-03-19T01:20:58.777Z,54.52
2018-03-19T01:21:30.458Z,54.59
2018-03-19T01:22:02.088Z,54.40
2018-03-19T01:22:33.714Z,54.53
2018-03-19T01:23:05.343Z,54.34
2018-03-19T01:23:36.979Z,54.30
2018-03-19T01:24:08.610Z,54.37
2018-03-19T01:24:40.242Z,54.37
2018-03-19T01:25:11.866Z,54.25
2018-03-19T01:25:43.494Z,54.31
2018-03-19T01:26:15.118Z,54.26
2018-03-19T01:26:46.794Z,54.28
2018-03-19T01:27:18.419Z,54.30
2018-03-19T01:27:50.046Z,54.09
2018-03-19T01:28:21.669Z,54.06
2018-03-19T01:28:53.298Z,54.14
2018-03-19T01:29:24.926Z,54.15
2018-03-19T01:29:56.554Z,54.28
2018-03-19T01:30:28.178Z,54.23
2018-03-19T01:30:59.842Z,54.08
2018-03-19T01:31:31.518Z,54.10
2018-03-19T01:32:03.142Z,54.31
2018-03-19T01:32:34.767Z,54.20
2018-03-19T01:33:06.394Z,54.47
2018-03-19T01:33:38.021Z,54.33
2018-03-19T01:34:09.650Z,54.21
2018-03-19T01:34:41.278Z,54.27
2018-03-19T01:35:12.907Z,54.35
2018-03-19T01:35:44.529Z,54.49
2018-03-19T01:36:16.159Z,54.40
2018-03-19T01:36:47.786Z,54.42
2018-03-19T01:37:19.450Z,54.52
2018-03-19T01:37:51.074Z,54.63
2018-03-19T01:38:22.698Z,54.80
2018-03-19T01:38:54.330Z,54.79
2018-03-19T01:39:25.955Z,54.98
2018-03-19T01:39:57.587Z,54.87
2018-03-19T01:40:29.219Z,54.99
2018-03-19T01:41:00.854Z,55.36
2018-03-19T01:41:32.482Z,55.09
2018-03-19T01:42:04.154Z,55.42
2018-03-19T01:42:35.778Z,55.39
2018-03-19T01:43:07.407Z,55.17
2018-03-19T01:43:39.162Z,55.18
2018-03-19T01:44:10.793Z,55.38
2018-03-19T01:44:42.413Z,55.49
2018-03-19T01:45:14.038Z,55.39
2018-03-19T01:45:45.665Z,55.38
2018-03-19T01:46:17.293Z,55.41
2018-03-19T01:46:48.918Z,55.82
2018-03-19T01:47:20.542Z,55.93
2018-03-19T01:47:52.166Z,55.65
2018-03-19T01:48:23.802Z,55.91
2018-03-19T01:48:55.466Z,55.86
2018-03-19T01:49:27.099Z,55.77
2018-03-19T01:49:58.726Z,55.88
2018-03-19T01:50:30.345Z,55.99
2018-03-19T01:51:01.975Z,55.85
2018-03-19T01:51:33.606Z,56.01
2018-03-19T01:52:05.229Z,56.13
2018-03-19T01:52:36.853Z,55.75
2018-03-19T01:53:08.482Z,56.17
2018-03-19T01:53:40.114Z,56.08
2018-03-19T01:54:11.738Z,56.30
2018-03-19T01:54:43.372Z,56.05
2018-03-19T01:55:15.002Z,56.35
2018-03-19T01:55:46.666Z,55.95
2018-03-19T01:56:18.295Z,55.99
2018-03-19T01:56:49.917Z,56.25
2018-03-19T01:57:21.546Z,56.12
2018-03-19T01:57:53.222Z,56.31
2018-03-19T01:58:24.845Z,56.57
2018-03-19T01:58:56.474Z,56.52
2018-03-19T01:59:28.099Z,56.47
2018-03-19T01:59:59.722Z,56.52
2018-03-19T02:00:31.345Z,56.78
2018-03-19T02:01:02.969Z,56.71
2018-03-19T02:01:34.606Z,56.31
2018-03-19T02:02:06.238Z,56.74
2018-03-19T02:02:37.866Z,56.76
2018-03-19T02:03:09.490Z,56.70
2018-03-19T02:03:41.114Z,57.00
2018-03-19T02:04:12.783Z,56.46
2018-03-19T02:04:44.446Z,56.54
2018-03-19T02:05:16.070Z,57.10
2018-03-19T02:05:47.698Z,57.01
2018-03-19T02:06:19.322Z,57.21
2018-03-19T02:06:50.949Z,57.08
2018-03-19T02:07:22.574Z,56.89
2018-03-19T02:07:54.197Z,57.05
2018-03-19T02:08:25.828Z,56.77
2018-03-19T02:08:57.454Z,56.94
2018-03-19T02:09:29.134Z,57.10
2018-03-19T02:10:00.759Z,56.83
2018-03-19T02:10:32.385Z,57.03
2018-03-19T02:11:04.014Z,56.83
2018-03-19T02:11:35.642Z,56.84
2018-03-19T02:12:07.275Z,56.80
2018-03-19T02:12:38.898Z,56.86
2018-03-19T02:13:10.526Z,56.77
2018-03-19T02:13:42.156Z,56.49
2018-03-19T02:14:13.783Z,56.85
2018-03-19T02:14:45.450Z,56.88
2018-03-19T02:15:17.083Z,56.57
2018-03-19T02:15:48.706Z,56.50
2018-03-19T02:16:20.334Z,56.49
2018-03-19T02:16:51.962Z,56.64
2018-03-19T02:17:23.594Z,56.79
2018-03-19T02:17:55.254Z,56.42
2018-03-19T02:18:26.877Z,56.16
2018-03-19T02:18:58.506Z,56.23
2018-03-19T02:19:30.146Z,56.04
2018-03-19T02:20:01.797Z,56.66
2018-03-19T02:20:33.421Z,56.18
2018-03-19T02:21:05.088Z,56.17
2018-03-19T02:21:36.709Z,56.23
2018-03-19T02:22:08.330Z,56.17
2018-03-19T02:22:39.958Z,56.05
2018-03-19T02:23:11.590Z,56.10
2018-03-19T02:23:43.213Z,56.01
2018-03-19T02:24:14.835Z,55.81
2018-03-19T02:24:46.494Z,55.90
2018-03-19T02:25:18.118Z,56.10
2018-03-19T02:25:49.742Z,55.91
2018-03-19T02:26:21.473Z,55.69
2018-03-19T02:26:53.070Z,56.01
2018-03-19T02:27:24.702Z,55.78
2018-03-19T02:27:56.347Z,55.84
2018-03-19T02:28:27.978Z,55.59
2018-03-19T02:28:59.602Z,55.68
2018-03-19T02:29:31.226Z,55.51
2018-03-19T02:30:02.901Z,55.52
2018-03-19T02:30:34.527Z,55.64
2018-03-19T02:31:06.158Z,55.56
2018-03-19T02:31:37.782Z,55.58
2018-03-19T02:32:09.412Z,55.44
2018-03-19T02:32:41.052Z,55.28
2018-03-19T02:33:12.678Z,55.23
2018-03-19T02:33:44.310Z,55.23
2018-03-19T02:34:15.939Z,55.17
2018-03-19T02:34:47.565Z,55.12
2018-03-19T02:35:19.230Z,55.03
2018-03-19T02:35:50.860Z,55.00
2018-03-19T02:36:22.514Z,54.98
2018-03-19T02:36:54.142Z,54.79
2018-03-19T02:37:25.767Z,54.99
2018-03-19T02:37:57.393Z,54.76
2018-03-19T02:38:29.018Z,54.73
2018-03-19T02:39:00.643Z,54.75
2018-03-19T02:39:32.275Z,54.87
2018-03-19T02:40:03.943Z,54.61
2018-03-19T02:40:35.571Z,54.77
2018-03-19T02:41:07.206Z,54.74
2018-03-19T02:41:38.845Z,54.77
2018-03-19T02:42:10.478Z,54.56
2018-03-19T02:42:42.178Z,54.78
2018-03-19T02:43:13.802Z,54.67
2018-03-19T02:43:45.471Z,54.62
2018-03-19T02:44:17.093Z,54.69
2018-03-19T02:44:48.825Z,54.44
2018-03-19T02:45:20.515Z,54.64
2018-03-19T02:45:52.147Z,54.54
2018-03-19T02:46:23.773Z,54.61
2018-03-19T02:46:55.471Z,54.63
2018-03-19T02:47:27.058Z,54.84
2018-03-19T02:47:58.682Z,54.68
2018-03-19T02:48:30.310Z,54.60
2018-03-19T02:49:01.938Z,54.67
2018-03-19T02:49:33.572Z,54.65
2018-03-19T02:50:05.294Z,54.65
2018-03-19T02:50:36.930Z,54.57
2018-03-19T02:51:08.555Z,54.63
2018-03-19T02:51:40.214Z,54.57
2018-03-19T02:52:11.838Z,54.64
2018-03-19T02:52:43.462Z,54.54
2018-03-19T02:53:15.091Z,54.55
2018-03-19T02:53:46.715Z,54.70
2018-03-19T02:54:18.338Z,54.59
2018-03-19T02:54:50.003Z,54.73
2018-03-19T02:55:21.637Z,54.86
2018-03-19T02:55:53.266Z,54.87
2018-03-19T02:56:24.891Z,54.89
2018-03-19T02:56:56.514Z,54.88
2018-03-19T02:57:28.178Z,54.88
2018-03-19T02:57:59.810Z,54.82
2018-03-19T02:58:31.439Z,55.02
2018-03-19T02:59:03.065Z,55.11
2018-03-19T02:59:34.686Z,54.87
2018-03-19T03:00:06.320Z,54.91
2018-03-19T03:00:37.947Z,55.18
2018-03-19T03:01:09.571Z,55.00
2018-03-19T03:01:41.236Z,55.02
2018-03-19T03:02:12.863Z,55.07
2018-03-19T03:02:44.487Z,55.06
2018-03-19T03:03:16.110Z,55.06
2018-03-19T03:03:47.739Z,55.20
2018-03-19T03:04:19.372Z,55.36
2018-03-19T03:04:51.006Z,55.24
2018-03-19T03:05:22.631Z,55.03
2018-03-19T03:05:54.258Z,55.17
2018-03-19T03:06:25.886Z,55.47
2018-03-19T03:06:57.558Z,55.37
2018-03-19T03:07:29.183Z,55.70
2018-03-19T03:08:00.805Z,55.85
2018-03-19T03:08:32.434Z,55.51
2018-03-19T03:09:04.062Z,55.70
2018-03-19T03:09:35.726Z,55.63
2018-03-19T03:10:07.350Z,55.64
2018-03-19T03:10:38.974Z,55.66
2018-03-19T03:11:10.598Z,55.53
2018-03-19T03:11:42.264Z,55.46
2018-03-19T03:12:13.893Z,55.75
2018-03-19T03:12:45.522Z,55.43
2018-03-19T03:13:17.146Z,55.55
2018-03-19T03:13:48.770Z,55.53
2018-03-19T03:14:20.434Z,55.78
2018-03-19T03:14:52.070Z,55.82
2018-03-19T03:15:23.698Z,55.94
2018-03-19T03:15:55.325Z,55.78
2018-03-19T03:16:26.950Z,55.82
2018-03-19T03:16:58.618Z,55.94
2018-03-19T03:17:30.246Z,55.87
2018-03-19T03:18:01.875Z,55.73
2018-03-19T03:18:33.502Z,55.93
2018-03-19T03:19:05.242Z,56.24
2018-03-19T03:19:36.870Z,56.13
2018-03-19T03:20:08.537Z,56.25
2018-03-19T03:20:40.168Z,56.05
2018-03-19T03:21:11.795Z,56.39
2018-03-19T03:21:43.418Z,56.16
2018-03-19T03:22:15.045Z,56.29
2018-03-19T03:22:46.671Z,56.36
2018-03-19T03:23:18.309Z,56.71
2018-03-19T03:23:49.939Z,56.56
2018-03-19T03:24:21.566Z,56.49
2018-03-19T03:24:53.198Z,56.13
2018-03-19T03:25:24.825Z,56.19
2018-03-19T03:25:56.499Z,56.18
2018-03-19T03:26:28.130Z,56.12
2018-03-19T03:26:59.762Z,56.29
2018-03-19T03:27:31.386Z,56.31
2018-03-19T03:28:03.010Z,56.57
2018-03-19T03:28:34.634Z,56.52
2018-03-19T03:29:06.263Z,56.41
2018-03-19T03:29:37.890Z,56.26
2018-03-19T03:30:09.524Z,56.33
2018-03-19T03:30:41.150Z,56.17
2018-03-19T03:31:12.780Z,56.03
2018-03-19T03:31:44.412Z,56.20
2018-03-19T03:32:16.043Z,56.16
2018-03-19T03:32:47.666Z,56.06
2018-03-19T03:33:19.291Z,56.16
2018-03-19T03:33:50.918Z,56.18
2018-03-19T03:34:22.546Z,55.94
2018-03-19T03:34:54.174Z,55.90
2018-03-19T03:35:25.849Z,55.98
2018-03-19T03:35:57.474Z,56.14
2018-03-19T03:36:29.099Z,56.03
2018-03-19T03:37:00.726Z,56.32
2018-03-19T03:37:32.355Z,56.13
2018-03-19T03:38:03.978Z,56.24
2018-03-19T03:38:35.611Z,56.29
2018-03-19T03:39:07.234Z,56.30
2018-03-19T03:39:38.857Z,56.15
2018-03-19T03:40:10.486Z,56.14
2018-03-19T03:40:42.110Z,55.88
2018-03-19T03:41:13.738Z,55.91
2018-03-19T03:41:45.362Z,56.33
2018-03-19T03:42:16.986Z,55.96
2018-03-19T03:42:48.661Z,55.77
2018-03-19T03:43:20.283Z,55.65
2018-03-19T03:43:51.910Z,55.47
2018-03-19T03:44:23.539Z,55.33
2018-03-19T03:44:55.166Z,55.24
2018-03-19T03:45:26.800Z,54.66
2018-03-19T03:45:58.462Z,54.29
2018-03-19T03:46:30.092Z,54.35
2018-03-19T03:47:01.755Z,54.31
2018-03-19T03:47:33.386Z,53.97
2018-03-19T03:48:05.058Z,54.09
2018-03-19T03:48:36.715Z,54.10
2018-03-19T03:49:08.351Z,54.35
2018-03-19T03:49:39.950Z,54.46
2018-03-19T03:50:11.548Z,54.44
2018-03-19T03:50:43.149Z,54.30
2018-03-19T03:51:14.746Z,54.31
2018-03-19T03:51:46.337Z,54.25
2018-03-19T03:52:17.934Z,54.31
2018-03-19T03:52:49.534Z,54.50
2018-03-19T03:53:21.174Z,54.52
2018-03-19T03:53:52.770Z,54.55
2018-03-19T03:54:24.372Z,54.83
2018-03-19T03:54:55.965Z,55.28
2018-03-19T03:55:27.557Z,54.95
2018-03-19T03:55:59.149Z,55.20
2018-03-19T03:56:30.745Z,54.70
2018-03-19T03:57:02.339Z,54.58
2018-03-19T03:57:33.934Z,54.30
2018-03-19T03:58:05.525Z,53.98
2018-03-19T03:58:37.154Z,53.53
2018-03-19T03:59:08.750Z,53.36
2018-03-19T03:59:40.349Z,53.16
2018-03-19T04:00:11.942Z,52.92
2018-03-19T04:00:43.538Z,52.63
2018-03-19T04:01:15.144Z,52.59
2018-03-19T04:01:46.782Z,52.67
2018-03-19T04:02:18.377Z,52.85
2018-03-19T04:02:49.974Z,52.75
2018-03-19T04:03:21.704Z,52.82
2018-03-19T04:03:53.218Z,52.75
2018-03-19T04:04:24.809Z,52.84
2018-03-19T04:04:56.401Z,52.73
2018-03-19T04:05:28.044Z,52.80
2018-03-19T04:05:59.637Z,52.66
2018-03-19T04:06:31.233Z,52.69
2018-03-19T04:07:02.826Z,52.79
2018-03-19T04:07:34.514Z,52.72
2018-03-19T04:08:06.109Z,52.64
2018-03-19T04:08:37.702Z,52.74
2018-03-19T04:09:09.293Z,52.77
2018-03-19T04:09:40.886Z,52.86
2018-03-19T04:10:12.482Z,52.89
2018-03-19T04:10:44.073Z,52.88
2018-03-19T04:11:15.671Z,52.96
2018-03-19T04:11:47.265Z,52.90
2018-03-19T04:12:18.862Z,52.92
2018-03-19T04:12:50.497Z,52.83
2018-03-19T04:13:22.093Z,52.84
2018-03-19T04:13:53.694Z,52.97
2018-03-19T04:14:25.290Z,53.04
2018-03-19T04:14:56.889Z,52.96
2018-03-19T04:15:28.510Z,52.83
2018-03-19T04:16:00.110Z,52.94
2018-03-19T04:16:31.758Z,52.96
2018-03-19T04:17:03.354Z,52.95
2018-03-19T04:17:34.949Z,53.06
2018-03-19T04:18:06.545Z,53.04
2018-03-19T04:18:38.141Z,53.02
2018-03-19T04:19:09.737Z,53.07
2018-03-19T04:19:41.333Z,53.10
2018-03-19T04:20:12.930Z,53.22
2018-03-19T04:20:44.521Z,53.17
2018-03-19T04:21:16.117Z,53.26
2018-03-19T04:21:47.713Z,53.21
2018-03-19T04:22:19.306Z,53.31
2018-03-19T04:22:50.897Z,53.39
2018-03-19T04:23:22.497Z,53.54
2018-03-19T04:23:54.089Z,53.53
2018-03-19T04:24:25.693Z,53.49
2018-03-19T04:24:57.286Z,53.57
2018-03-19T04:25:28.945Z,53.68
2018-03-19T04:26:00.542Z,53.63
2018-03-19T04:26:32.133Z,53.74
2018-03-19T04:27:03.729Z,53.87
2018-03-19T04:27:35.329Z,53.85
2018-03-19T04:28:06.926Z,53.96
2018-03-19T04:28:38.518Z,53.96
2018-03-19T04:29:10.113Z,53.93
2018-03-19T04:29:41.714Z,53.87
2018-03-19T04:30:13.306Z,54.01
2018-03-19T04:30:44.938Z,53.98
2018-03-19T04:31:16.533Z,53.94
2018-03-19T04:31:48.125Z,53.89
2018-03-19T04:32:19.717Z,53.93
2018-03-19T04:32:51.377Z,53.94
2018-03-19T04:33:22.982Z,53.92
2018-03-19T04:33:54.582Z,53.90
2018-03-19T04:34:26.208Z,53.85
2018-03-19T04:34:57.802Z,53.84
2018-03-19T04:35:29.410Z,53.87
2018-03-19T04:36:01.038Z,53.72
2018-03-19T04:36:32.634Z,53.68
2018-03-19T04:37:04.233Z,53.72
2018-03-19T04:37:35.826Z,53.63
2018-03-19T04:38:07.454Z,53.67
2018-03-19T04:38:39.050Z,53.61
2018-03-19T04:39:10.650Z,53.62
2018-03-19T04:39:42.241Z,53.63
2018-03-19T04:40:13.837Z,53.59
2018-03-19T04:40:45.434Z,53.48
2018-03-19T04:41:17.027Z,53.41
2018-03-19T04:41:48.622Z,53.43
2018-03-19T04:42:20.223Z,53.34
2018-03-19T04:42:51.817Z,53.32
2018-03-19T04:43:23.453Z,53.23
2018-03-19T04:43:55.049Z,53.23
2018-03-19T04:44:26.646Z,53.22
2018-03-19T04:44:58.250Z,53.12
2018-03-19T04:45:29.846Z,53.07
2018-03-19T04:46:01.441Z,53.02
2018-03-19T04:46:33.034Z,52.92
2018-03-19T04:47:04.630Z,52.88
2018-03-19T04:47:36.221Z,52.85
2018-03-19T04:48:07.858Z,52.85
2018-03-19T04:48:39.453Z,52.78
2018-03-19T04:49:11.048Z,52.81
2018-03-19T04:49:42.666Z,52.45
2018-03-19T04:50:14.257Z,51.78
2018-03-19T04:50:45.857Z,52.08
2018-03-19T04:51:17.482Z,52.26
2018-03-19T04:51:49.154Z,52.47
2018-03-19T04:52:20.779Z,52.63
2018-03-19T04:52:52.403Z,52.36
2018-03-19T04:53:24.030Z,52.32
2018-03-19T04:53:55.654Z,52.46
2018-03-19T04:54:27.318Z,52.51
2018-03-19T04:54:58.941Z,52.51
2018-03-19T04:55:30.571Z,52.46
2018-03-19T04:56:02.230Z,52.35
2018-03-19T04:56:33.855Z,52.33
2018-03-19T04:57:05.489Z,52.30
2018-03-19T04:57:37.119Z,52.19
2018-03-19T04:58:08.742Z,52.29
2018-03-19T04:58:40.366Z,52.27
2018-03-19T04:59:11.990Z,52.57
2018-03-19T04:59:43.615Z,52.40
2018-03-19T05:00:15.282Z,52.32
2018-03-19T05:00:46.915Z,52.42
2018-03-19T05:01:18.547Z,52.41
2018-03-19T05:01:50.174Z,52.35
2018-03-19T05:02:21.803Z,52.31
2018-03-19T05:02:53.428Z,52.24
2018-03-19T05:03:25.104Z,52.11
2018-03-19T05:03:56.718Z,52.07
2018-03-19T05:04:28.342Z,52.12
2018-03-19T05:05:00.088Z,52.21
2018-03-19T05:05:31.815Z,52.37
2018-03-19T05:06:03.439Z,52.40
2018-03-19T05:06:35.070Z,52.45
2018-03-19T05:07:06.700Z,52.46
2018-03-19T05:07:38.326Z,52.47
2018-03-19T05:08:09.950Z,52.62
2018-03-19T05:08:41.574Z,52.68
2018-03-19T05:09:13.203Z,52.71
2018-03-19T05:09:44.870Z,52.83
2018-03-19T05:10:16.498Z,52.91
2018-03-19T05:10:48.122Z,53.00
2018-03-19T05:11:19.751Z,53.00
2018-03-19T05:11:51.383Z,53.10
2018-03-19T05:12:23.010Z,53.15
2018-03-19T05:12:54.638Z,53.33
2018-03-19T05:13:26.261Z,53.38
2018-03-19T05:13:57.885Z,53.50
2018-03-19T05:14:29.506Z,53.61
2018-03-19T05:15:01.179Z,53.80
2018-03-19T05:15:32.810Z,53.70
2018-03-19T05:16:04.442Z,53.79
2018-03-19T05:16:36.069Z,53.96
2018-03-19T05:17:07.699Z,53.91
2018-03-19T05:17:39.353Z,53.86
2018-03-19T05:18:10.987Z,53.96
2018-03-19T05:18:42.609Z,53.78
2018-03-19T05:19:14.237Z,53.92
2018-03-19T05:19:45.862Z,53.98
2018-03-19T05:20:17.525Z,54.09
2018-03-19T05:20:49.155Z,54.00
2018-03-19T05:21:20.782Z,53.98
2018-03-19T05:21:52.412Z,54.06
2018-03-19T05:22:24.053Z,54.18
2018-03-19T05:22:55.682Z,54.32
2018-03-19T05:23:27.326Z,54.30
2018-03-19T05:23:58.951Z,54.56
2018-03-19T05:24:30.623Z,54.34
2018-03-19T05:25:02.255Z,53.99
2018-03-19T05:25:33.882Z,54.30
2018-03-19T05:26:05.533Z,54.10
2018-03-19T05:26:37.157Z,54.07
2018-03-19T05:27:08.822Z,54.09
2018-03-19T05:27:40.446Z,54.04
2018-03-19T05:28:12.074Z,53.96
2018-03-19T05:28:43.702Z,54.11
2018-03-19T05:29:15.333Z,53.91
2018-03-19T05:29:46.966Z,53.97
2018-03-19T05:30:18.610Z,54.07
2018-03-19T05:30:50.238Z,54.04
2018-03-19T05:31:21.877Z,53.96
2018-03-19T05:31:53.542Z,54.16
2018-03-19T05:32:25.214Z,53.92
2018-03-19T05:32:56.842Z,53.94
2018-03-19T05:33:28.474Z,53.98
2018-03-19T05:34:00.098Z,53.92
2018-03-19T05:34:31.722Z,54.00
2018-03-19T05:35:03.351Z,54.19
2018-03-19T05:35:34.983Z,53.95
2018-03-19T05:36:06.613Z,54.05
2018-03-19T05:36:38.248Z,53.98
2018-03-19T05:37:09.886Z,53.99
2018-03-19T05:37:41.510Z,54.25
2018-03-19T05:38:13.135Z,54.06
2018-03-19T05:38:44.762Z,54.18
2018-03-19T05:39:16.398Z,54.10
2018-03-19T05:39:48.026Z,54.06
2018-03-19T05:40:19.654Z,54.05
2018-03-19T05:40:51.334Z,54.11
2018-03-19T05:41:22.962Z,54.03
2018-03-19T05:41:54.670Z,54.01
2018-03-19T05:42:26.306Z,53.92
2018-03-19T05:42:57.935Z,53.95
2018-03-19T05:43:29.558Z,54.02
2018-03-19T05:44:01.182Z,53.85
2018-03-19T05:44:32.827Z,53.94
2018-03-19T05:45:04.459Z,53.90
2018-03-19T05:45:36.090Z,53.89
2018-03-19T05:46:07.758Z,53.86
2018-03-19T05:46:39.426Z,53.78
2018-03-19T05:47:11.054Z,53.80
2018-03-19T05:47:42.722Z,53.88
2018-03-19T05:48:14.350Z,53.81
2018-03-19T05:48:45.974Z,53.90
2018-03-19T05:49:17.598Z,53.86
2018-03-19T05:49:49.226Z,53.81
2018-03-19T05:50:20.853Z,53.78
2018-03-19T05:50:52.482Z,53.67
2018-03-19T05:51:24.111Z,53.77
2018-03-19T05:51:55.782Z,53.72
2018-03-19T05:52:27.405Z,53.71
2018-03-19T05:52:59.030Z,53.68
2018-03-19T05:53:30.659Z,53.71
2018-03-19T05:54:02.330Z,53.67
2018-03-19T05:54:33.958Z,53.71
2018-03-19T05:55:05.585Z,53.67
2018-03-19T05:55:37.211Z,53.58
2018-03-19T05:56:08.833Z,53.63
2018-03-19T05:56:40.496Z,53.55
2018-03-19T05:57:12.126Z,53.52
2018-03-19T05:57:43.750Z,53.50
2018-03-19T05:58:15.379Z,53.38
2018-03-19T05:58:47.006Z,53.33
2018-03-19T05:59:18.630Z,53.36
2018-03-19T05:59:50.258Z,53.34
2018-03-19T06:00:21.889Z,53.38
2018-03-19T06:00:53.579Z,53.42
2018-03-19T06:01:25.201Z,53.32
2018-03-19T06:01:56.835Z,53.34
2018-03-19T06:02:28.458Z,53.44
2018-03-19T06:03:00.086Z,53.57
2018-03-19T06:03:31.709Z,53.60
2018-03-19T06:04:03.377Z,53.52
2018-03-19T06:04:35.008Z,53.50
2018-03-19T06:05:06.639Z,53.59
2018-03-19T06:05:38.262Z,53.54
2018-03-19T06:06:09.895Z,53.54
2018-03-19T06:06:41.587Z,53.52
2018-03-19T06:07:13.210Z,53.37
2018-03-19T06:07:44.834Z,53.45
2018-03-19T06:08:16.461Z,53.45
2018-03-19T06:08:48.082Z,53.37
2018-03-19T06:09:19.710Z,53.31
2018-03-19T06:09:51.334Z,53.33
2018-03-19T06:10:22.964Z,53.34
2018-03-19T06:10:54.598Z,53.37
2018-03-19T06:11:26.222Z,53.40
2018-03-19T06:11:57.887Z,53.43
2018-03-19T06:12:29.518Z,53.39
2018-03-19T06:13:01.154Z,53.34
2018-03-19T06:13:32.794Z,53.36
2018-03-19T06:14:04.422Z,53.36
2018-03-19T06:14:36.045Z,53.28
2018-03-19T06:15:07.669Z,53.27
2018-03-19T06:15:39.294Z,53.32
2018-03-19T06:16:10.929Z,53.30
2018-03-19T06:16:42.553Z,53.31
2018-03-19T06:17:14.230Z,53.30
2018-03-19T06:17:45.858Z,53.29
2018-03-19T06:18:17.486Z,53.25
2018-03-19T06:18:49.114Z,53.17
2018-03-19T06:19:20.742Z,53.23
2018-03-19T06:19:52.366Z,53.24
2018-03-19T06:20:23.989Z,53.21
2018-03-19T06:20:55.615Z,53.06
2018-03-19T06:21:27.242Z,53.08
2018-03-19T06:21:58.918Z,53.08
2018-03-19T06:22:30.542Z,53.15
2018-03-19T06:23:02.170Z,53.14
2018-03-19T06:23:33.793Z,53.13
2018-03-19T06:24:05.418Z,53.13
2018-03-19T06:24:37.042Z,53.11
2018-03-19T06:25:08.670Z,53.15
2018-03-19T06:25:40.294Z,53.15
2018-03-19T06:26:11.918Z,53.20
2018-03-19T06:26:43.546Z,53.12
2018-03-19T06:27:15.206Z,53.17
2018-03-19T06:27:46.826Z,53.19
2018-03-19T06:28:18.458Z,53.14
2018-03-19T06:28:50.082Z,53.13
2018-03-19T06:29:21.710Z,53.11
2018-03-19T06:29:53.342Z,53.13
2018-03-19T06:30:24.966Z,53.05
2018-03-19T06:30:56.590Z,53.08
2018-03-19T06:31:28.214Z,53.21
2018-03-19T06:31:59.880Z,53.10
2018-03-19T06:32:31.510Z,53.10
2018-03-19T06:33:03.137Z,53.15
2018-03-19T06:33:34.770Z,53.20
2018-03-19T06:34:06.443Z,53.06
2018-03-19T06:34:38.065Z,53.16
2018-03-19T06:35:09.699Z,53.13
2018-03-19T06:35:41.346Z,53.08
2018-03-19T06:36:12.979Z,53.11
2018-03-19T06:36:44.610Z,53.14
2018-03-19T06:37:16.234Z,53.14
2018-03-19T06:37:47.909Z,53.10
2018-03-19T06:38:19.550Z,53.08
2018-03-19T06:38:51.190Z,53.15
2018-03-19T06:39:22.814Z,53.34
2018-03-19T06:39:54.441Z,53.25
2018-03-19T06:40:26.071Z,53.25
2018-03-19T06:40:57.698Z,53.32
2018-03-19T06:41:29.326Z,53.32
2018-03-19T06:42:00.963Z,53.46
2018-03-19T06:42:32.635Z,53.37
2018-03-19T06:43:04.258Z,53.20
2018-03-19T06:43:35.886Z,53.34
2018-03-19T06:44:07.510Z,53.24
2018-03-19T06:44:39.142Z,53.37
2018-03-19T06:45:10.810Z,53.22
2018-03-19T06:45:42.434Z,53.23
2018-03-19T06:46:14.058Z,53.28
2018-03-19T06:46:45.682Z,53.50
2018-03-19T06:47:17.306Z,53.43